| time (UTC) | temp F | wind direction | speed knots | gust knots | rain 1hr in | rain 24hr in | rain mn in | humidity % | barometer mb |
| 20260506134551 | 50 | 0 | 0.0 | 0.0 | 0.00 | 0.00 | 0.00 | 53 | 1016.6 |
| 20260506133101 | 48 | 0 | 0.0 | 0.0 | 0.00 | 0.00 | 0.00 | 54 | 1016.2 |
| 20260506131600 | 46 | 0 | 0.0 | 0.0 | 0.00 | 0.00 | 0.00 | 56 | 1016.0 |
| 20260506130054 | 46 | 0 | 0.9 | 1.7 | 0.00 | 0.00 | 0.00 | 55 | 1015.8 |
| 20260506124549 | 47 | 0 | 0.0 | 0.0 | 0.00 | 0.00 | 0.00 | 54 | 1015.7 |
| 20260506123049 | 47 | 0 | 0.0 | 1.7 | 0.00 | 0.00 | 0.00 | 52 | 1015.5 |
| 20260506121545 | 47 | 0 | 0.0 | 0.0 | 0.00 | 0.00 | 0.00 | 52 | 1015.2 |
| 20260506120050 | 48 | 0 | 0.0 | 0.0 | 0.00 | 0.00 | 0.00 | 51 | 1015.2 |
| 20260506114553 | 48 | 0 | 0.0 | 0.9 | 0.00 | 0.00 | 0.00 | 51 | 1015.3 |
| 20260506113049 | 48 | 0 | 0.0 | 0.0 | 0.00 | 0.00 | 0.00 | 49 | 1015.1 |
| 20260506111547 | 49 | 0 | 0.0 | 0.0 | 0.00 | 0.00 | 0.00 | 47 | 1014.9 |
| 20260506104549 | 50 | 0 | 0.0 | 0.0 | 0.00 | 0.00 | 0.00 | 45 | 1014.4 |
| 20260506103049 | 51 | 0 | 0.0 | 0.9 | 0.00 | 0.00 | 0.00 | 42 | 1014.4 |
| 20260506101549 | 53 | 360 | 0.0 | 3.5 | 0.00 | 0.00 | 0.00 | 40 | 1014.3 |
| 20260506100049 | 56 | 360 | 0.9 | 3.5 | 0.00 | 0.00 | 0.00 | 44 | 1014.0 |
| 20260506094619 | 54 | 360 | 1.7 | 5.2 | 0.00 | 0.00 | 0.00 | 47 | 1014.0 |
| 20260506093053 | 52 | 0 | 0.0 | 1.7 | 0.00 | 0.00 | 0.00 | 45 | 1013.9 |
| 20260506091552 | 53 | 0 | 0.0 | 0.9 | 0.00 | 0.00 | 0.00 | 43 | 1013.9 |
| 20260506090052 | 54 | 360 | 0.9 | 2.6 | 0.00 | 0.00 | 0.00 | 42 | 1013.7 |
| 20260506084551 | 53 | 360 | 0.9 | 2.6 | 0.00 | 0.00 | 0.00 | 41 | 1013.8 |
| 20260506083105 | 53 | 360 | 0.9 | 3.5 | 0.00 | 0.00 | 0.00 | 41 | 1013.5 |
| 20260506081551 | 54 | 360 | 0.9 | 2.6 | 0.00 | 0.00 | 0.00 | 39 | 1013.6 |
| 20260506073050 | 54 | 0 | 0.0 | 0.0 | 0.00 | 0.00 | 0.00 | 38 | 1013.4 |
| 20260506071555 | 55 | 0 | 0.0 | 1.7 | 0.00 | 0.00 | 0.00 | 37 | 1013.4 |
| 20260506061550 | 60 | 0 | 0.0 | 0.9 | 0.00 | 0.00 | 0.00 | 35 | 1012.7 |
| 20260506060109 | 60 | 86 | 0.9 | 3.5 | 0.00 | 0.00 | 0.00 | 34 | 1012.8 |
| 20260506044605 | 60 | 0 | 0.0 | 0.0 | 0.00 | 0.00 | 0.00 | 36 | 1012.2 |
| 20260506043047 | 61 | 0 | 0.0 | 0.0 | 0.00 | 0.00 | 0.00 | 35 | 1012.0 |
| 20260506041555 | 62 | 0 | 0.0 | 1.7 | 0.00 | 0.00 | 0.00 | 35 | 1011.8 |
| 20260506040052 | 62 | 0 | 0.0 | 0.9 | 0.00 | 0.00 | 0.00 | 34 | 1011.5 |
| 20260506034549 | 63 | 0 | 0.0 | 0.0 | 0.00 | 0.00 | 0.00 | 33 | 1011.3 |
| 20260506033052 | 65 | 0 | 0.0 | 1.7 | 0.00 | 0.00 | 0.00 | 31 | 1011.0 |
| 20260506031557 | 66 | 0 | 0.0 | 1.7 | 0.00 | 0.00 | 0.00 | 31 | 1010.8 |
| 20260506030052 | 67 | 0 | 0.0 | 1.7 | 0.00 | 0.00 | 0.00 | 30 | 1010.4 |
| 20260506024559 | 68 | 0 | 0.0 | 0.9 | 0.00 | 0.00 | 0.00 | 30 | 1010.3 |
| 20260506023100 | 68 | 0 | 0.9 | 3.5 | 0.00 | 0.00 | 0.00 | 29 | 1010.0 |
| 20260506021556 | 69 | 174 | 1.7 | 6.1 | 0.00 | 0.00 | 0.00 | 29 | 1009.9 |
| 20260506020053 | 70 | 153 | 2.6 | 6.1 | 0.00 | 0.00 | 0.00 | 29 | 1009.7 |
| 20260506014558 | 71 | 212 | 3.5 | 7.0 | 0.00 | 0.00 | 0.00 | 28 | 1009.6 |
| 20260506013046 | 71 | 235 | 1.7 | 7.8 | 0.00 | 0.00 | 0.00 | 28 | 1009.5 |
| 20260506011549 | 72 | 192 | 2.6 | 7.0 | 0.00 | 0.00 | 0.00 | 28 | 1009.5 |
| 20260506010057 | 71 | 237 | 2.6 | 7.0 | 0.00 | 0.00 | 0.00 | 28 | 1009.5 |
| 20260506004553 | 71 | 241 | 2.6 | 7.0 | 0.00 | 0.00 | 0.00 | 28 | 1009.4 |
| 20260506003050 | 72 | 214 | 4.3 | 9.6 | 0.00 | 0.00 | 0.00 | 28 | 1009.4 |
| 20260506001551 | 72 | 217 | 3.5 | 7.8 | 0.00 | 0.00 | 0.00 | 29 | 1009.5 |
| 20260506000053 | 71 | 186 | 7.0 | 12.2 | 0.00 | 0.00 | 0.00 | 29 | 1009.3 |
| 20260505234554 | 71 | 293 | 5.2 | 10.4 | 0.00 | 0.00 | 0.00 | 29 | 1009.2 |
| 20260505233051 | 72 | 339 | 2.6 | 8.7 | 0.00 | 0.00 | 0.00 | 29 | 1009.2 |
| 20260505231600 | 72 | 239 | 3.5 | 9.6 | 0.00 | 0.00 | 0.00 | 30 | 1009.4 |
| 20260505230059 | 72 | 253 | 1.7 | 12.2 | 0.00 | 0.00 | 0.00 | 30 | 1009.6 |
| 20260505224553 | 71 | 227 | 4.3 | 8.7 | 0.00 | 0.00 | 0.00 | 31 | 1009.6 |
| 20260505223053 | 70 | 148 | 4.3 | 7.8 | 0.00 | 0.00 | 0.00 | 30 | 1009.7 |
| 20260505221557 | 71 | 153 | 3.5 | 7.0 | 0.00 | 0.00 | 0.00 | 31 | 1009.9 |
| 20260505220056 | 71 | 319 | 3.5 | 7.8 | 0.00 | 0.00 | 0.00 | 30 | 1010.0 |
| 20260505214556 | 70 | 228 | 5.2 | 9.6 | 0.00 | 0.00 | 0.00 | 31 | 1010.4 |
| 20260505213105 | 71 | 212 | 3.5 | 9.6 | 0.00 | 0.00 | 0.00 | 30 | 1010.4 |
| 20260505211552 | 69 | 217 | 2.6 | 7.0 | 0.00 | 0.00 | 0.00 | 32 | 1010.6 |
| 20260505210051 | 68 | 281 | 3.5 | 10.4 | 0.00 | 0.00 | 0.00 | 32 | 1010.7 |
| 20260505204550 | 68 | 57 | 4.3 | 8.7 | 0.00 | 0.00 | 0.00 | 33 | 1010.7 |
| 20260505203046 | 68 | 30 | 0.9 | 9.6 | 0.00 | 0.00 | 0.00 | 33 | 1010.8 |
| 20260505201550 | 68 | 227 | 1.7 | 8.7 | 0.00 | 0.00 | 0.00 | 34 | 1010.9 |
| 20260505200052 | 68 | 277 | 1.7 | 16.5 | 0.00 | 0.00 | 0.00 | 34 | 1011.0 |
| 20260505194551 | 68 | 10 | 5.2 | 16.5 | 0.00 | 0.00 | 0.00 | 34 | 1010.9 |
| 20260505193052 | 65 | 5 | 1.7 | 7.0 | 0.00 | 0.00 | 0.00 | 36 | 1011.2 |
| 20260505191608 | 66 | 84 | 2.6 | 6.1 | 0.00 | 0.00 | 0.00 | 32 | 1011.3 |
| 20260505190052 | 65 | 246 | 0.0 | 6.1 | 0.00 | 0.00 | 0.00 | 35 | 1011.5 |
| 20260505184551 | 63 | 223 | 1.7 | 7.8 | 0.00 | 0.00 | 0.00 | 39 | 1011.6 |
| 20260505183051 | 62 | 266 | 1.7 | 7.0 | 0.00 | 0.00 | 0.00 | 40 | 1011.7 |
| 20260505181552 | 62 | 249 | 3.5 | 10.4 | 0.00 | 0.00 | 0.00 | 40 | 1011.8 |
| 20260505174606 | 61 | 192 | 4.3 | 7.0 | 0.00 | 0.00 | 0.00 | 44 | 1011.7 |
| 20260505173052 | 61 | 223 | 1.7 | 9.6 | 0.00 | 0.00 | 0.00 | 45 | 1011.7 |
| 20260505171552 | 61 | 140 | 0.9 | 5.2 | 0.00 | 0.00 | 0.00 | 45 | 1011.7 |
| 20260505170051 | 60 | 298 | 2.6 | 5.2 | 0.00 | 0.00 | 0.00 | 46 | 1011.8 |
| 20260505164551 | 59 | 273 | 2.6 | 7.0 | 0.00 | 0.00 | 0.00 | 47 | 1011.7 |
| 20260505163049 | 59 | 239 | 3.5 | 9.6 | 0.00 | 0.00 | 0.00 | 47 | 1011.5 |
| 20260505161553 | 59 | 212 | 2.6 | 8.7 | 0.00 | 0.00 | 0.00 | 47 | 1011.4 |
| 20260505153049 | 56 | 133 | 1.7 | 6.1 | 0.00 | 0.00 | 0.00 | 52 | 1011.4 |
| 20260505151549 | 57 | 111 | 2.6 | 8.7 | 0.00 | 0.00 | 0.00 | 52 | 1011.3 |